sensor_id;sensor_type;location;lat;lon;timestamp;pressure;altitude;pressure_sealevel;temperature;humidity
43878;BME280;29815;48.184;11.268;2024-02-15T00:01:14;96069.03;;;8.43;100.00
43878;BME280;29815;48.184;11.268;2024-02-15T00:03:44;96070.56;;;8.39;100.00
43878;BME280;29815;48.184;11.268;2024-02-15T00:06:15;96068.34;;;8.36;100.00
43878;BME280;29815;48.184;11.268;2024-02-15T00:08:44;96068.03;;;8.33;100.00
43878;BME280;29815;48.184;11.268;2024-02-15T00:11:13;96069.97;;;8.37;100.00
43878;BME280;29815;48.184;11.268;2024-02-15T00:13:43;96062.41;;;8.34;100.00
43878;BME280;29815;48.184;11.268;2024-02-15T00:16:13;96063.13;;;8.30;100.00
43878;BME280;29815;48.184;11.268;2024-02-15T00:18:42;96058.56;;;8.30;100.00
43878;BME280;29815;48.184;11.268;2024-02-15T00:21:14;96059.16;;;8.32;100.00
43878;BME280;29815;48.184;11.268;2024-02-15T00:23:43;96062.31;;;8.29;100.00
43878;BME280;29815;48.184;11.268;2024-02-15T00:26:13;96074.56;;;8.25;100.00
43878;BME280;29815;48.184;11.268;2024-02-15T00:28:42;96068.47;;;8.30;100.00
43878;BME280;29815;48.184;11.268;2024-02-15T00:31:11;96066.59;;;8.30;100.00
43878;BME280;29815;48.184;11.268;2024-02-15T00:33:41;96064.06;;;8.24;100.00
43878;BME280;29815;48.184;11.268;2024-02-15T00:36:10;96067.50;;;8.19;100.00
43878;BME280;29815;48.184;11.268;2024-02-15T00:38:41;96070.19;;;8.19;100.00
43878;BME280;29815;48.184;11.268;2024-02-15T00:41:12;96066.59;;;8.13;100.00
43878;BME280;29815;48.184;11.268;2024-02-15T00:43:41;96074.53;;;8.08;100.00
43878;BME280;29815;48.184;11.268;2024-02-15T00:46:11;96068.84;;;8.05;100.00
43878;BME280;29815;48.184;11.268;2024-02-15T00:48:40;96065.50;;;7.98;100.00
43878;BME280;29815;48.184;11.268;2024-02-15T00:51:10;96064.44;;;7.99;100.00
43878;BME280;29815;48.184;11.268;2024-02-15T00:53:40;96068.66;;;7.95;100.00
43878;BME280;29815;48.184;11.268;2024-02-15T00:56:10;96068.81;;;7.88;100.00
43878;BME280;29815;48.184;11.268;2024-02-15T00:58:39;96074.00;;;7.78;100.00
43878;BME280;29815;48.184;11.268;2024-02-15T01:01:09;96077.63;;;7.72;100.00
43878;BME280;29815;48.184;11.268;2024-02-15T01:03:39;96075.50;;;7.74;100.00
43878;BME280;29815;48.184;11.268;2024-02-15T01:06:08;96079.47;;;7.71;100.00
43878;BME280;29815;48.184;11.268;2024-02-15T01:08:38;96072.66;;;7.64;100.00
43878;BME280;29815;48.184;11.268;2024-02-15T01:11:09;96078.84;;;7.53;100.00
43878;BME280;29815;48.184;11.268;2024-02-15T01:13:38;96077.69;;;7.48;100.00
43878;BME280;29815;48.184;11.268;2024-02-15T01:16:08;96074.03;;;7.38;100.00
43878;BME280;29815;48.184;11.268;2024-02-15T01:18:38;96079.03;;;7.34;100.00
43878;BME280;29815;48.184;11.268;2024-02-15T01:21:07;96075.09;;;7.25;100.00
43878;BME280;29815;48.184;11.268;2024-02-15T01:23:39;96076.72;;;7.26;100.00
43878;BME280;29815;48.184;11.268;2024-02-15T01:26:10;96072.75;;;7.17;100.00
43878;BME280;29815;48.184;11.268;2024-02-15T01:28:40;96077.75;;;7.13;100.00
43878;BME280;29815;48.184;11.268;2024-02-15T01:31:11;96076.16;;;7.01;100.00
43878;BME280;29815;48.184;11.268;2024-02-15T01:33:40;96072.31;;;6.97;100.00
43878;BME280;29815;48.184;11.268;2024-02-15T01:36:13;96075.69;;;6.92;100.00
43878;BME280;29815;48.184;11.268;2024-02-15T01:38:44;96074.88;;;6.92;100.00
43878;BME280;29815;48.184;11.268;2024-02-15T01:41:15;96068.50;;;6.93;100.00
43878;BME280;29815;48.184;11.268;2024-02-15T01:43:44;96060.47;;;6.93;100.00
43878;BME280;29815;48.184;11.268;2024-02-15T01:46:15;96061.97;;;6.89;100.00
43878;BME280;29815;48.184;11.268;2024-02-15T01:48:45;96058.00;;;6.91;100.00
43878;BME280;29815;48.184;11.268;2024-02-15T01:51:15;96058.25;;;6.90;100.00
43878;BME280;29815;48.184;11.268;2024-02-15T01:53:46;96055.09;;;6.93;100.00
43878;BME280;29815;48.184;11.268;2024-02-15T01:56:16;96060.34;;;6.99;100.00
43878;BME280;29815;48.184;11.268;2024-02-15T01:58:47;96065.56;;;7.06;100.00
43878;BME280;29815;48.184;11.268;2024-02-15T02:01:19;96062.66;;;7.07;100.00
43878;BME280;29815;48.184;11.268;2024-02-15T02:03:50;96054.41;;;7.09;100.00
43878;BME280;29815;48.184;11.268;2024-02-15T02:06:19;96054.06;;;7.05;100.00
43878;BME280;29815;48.184;11.268;2024-02-15T02:08:49;96055.22;;;7.09;100.00
43878;BME280;29815;48.184;11.268;2024-02-15T02:11:19;96059.03;;;7.13;100.00
43878;BME280;29815;48.184;11.268;2024-02-15T02:13:49;96059.25;;;7.12;100.00
43878;BME280;29815;48.184;11.268;2024-02-15T02:16:26;96051.81;;;7.14;100.00
43878;BME280;29815;48.184;11.268;2024-02-15T02:18:56;96055.22;;;7.09;100.00
43878;BME280;29815;48.184;11.268;2024-02-15T02:21:27;96052.31;;;7.11;100.00
43878;BME280;29815;48.184;11.268;2024-02-15T02:23:57;96048.56;;;7.12;100.00
43878;BME280;29815;48.184;11.268;2024-02-15T02:26:28;96051.63;;;7.04;100.00
43878;BME280;29815;48.184;11.268;2024-02-15T02:28:58;96042.19;;;7.01;100.00
43878;BME280;29815;48.184;11.268;2024-02-15T02:31:32;96049.63;;;6.99;100.00
43878;BME280;29815;48.184;11.268;2024-02-15T02:34:03;96050.44;;;7.00;100.00
43878;BME280;29815;48.184;11.268;2024-02-15T02:36:34;96040.34;;;7.02;100.00
43878;BME280;29815;48.184;11.268;2024-02-15T02:39:04;96039.16;;;6.98;100.00
43878;BME280;29815;48.184;11.268;2024-02-15T02:41:36;96039.97;;;6.98;100.00
43878;BME280;29815;48.184;11.268;2024-02-15T02:44:06;96044.16;;;6.94;100.00
43878;BME280;29815;48.184;11.268;2024-02-15T02:46:35;96042.88;;;6.97;100.00
43878;BME280;29815;48.184;11.268;2024-02-15T02:49:04;96036.97;;;6.95;100.00
43878;BME280;29815;48.184;11.268;2024-02-15T02:51:34;96044.06;;;7.01;100.00
43878;BME280;29815;48.184;11.268;2024-02-15T02:54:03;96039.63;;;7.06;100.00
43878;BME280;29815;48.184;11.268;2024-02-15T02:56:33;96036.38;;;7.04;100.00
43878;BME280;29815;48.184;11.268;2024-02-15T02:59:04;96035.22;;;7.00;100.00
43878;BME280;29815;48.184;11.268;2024-02-15T03:01:35;96028.94;;;6.95;100.00
43878;BME280;29815;48.184;11.268;2024-02-15T03:04:04;96023.69;;;6.88;100.00
43878;BME280;29815;48.184;11.268;2024-02-15T03:06:34;96026.94;;;6.90;100.00
43878;BME280;29815;48.184;11.268;2024-02-15T03:09:03;96031.38;;;6.85;100.00
43878;BME280;29815;48.184;11.268;2024-02-15T03:11:35;96034.63;;;6.87;100.00
43878;BME280;29815;48.184;11.268;2024-02-15T03:14:07;96029.63;;;6.90;100.00
43878;BME280;29815;48.184;11.268;2024-02-15T03:16:37;96031.50;;;6.90;100.00
43878;BME280;29815;48.184;11.268;2024-02-15T03:19:07;96031.88;;;6.82;100.00
43878;BME280;29815;48.184;11.268;2024-02-15T03:21:38;96036.19;;;6.83;100.00
43878;BME280;29815;48.184;11.268;2024-02-15T03:24:09;96027.88;;;6.84;100.00
43878;BME280;29815;48.184;11.268;2024-02-15T03:26:38;96027.41;;;6.87;100.00
43878;BME280;29815;48.184;11.268;2024-02-15T03:29:12;96029.41;;;6.92;100.00
43878;BME280;29815;48.184;11.268;2024-02-15T03:31:41;96030.09;;;6.87;100.00
43878;BME280;29815;48.184;11.268;2024-02-15T03:34:10;96026.59;;;6.87;100.00
43878;BME280;29815;48.184;11.268;2024-02-15T03:36:43;96024.66;;;6.82;100.00
43878;BME280;29815;48.184;11.268;2024-02-15T03:39:13;96026.63;;;6.75;100.00
43878;BME280;29815;48.184;11.268;2024-02-15T03:41:42;96024.06;;;6.68;100.00
43878;BME280;29815;48.184;11.268;2024-02-15T03:44:14;96031.75;;;6.65;100.00
43878;BME280;29815;48.184;11.268;2024-02-15T03:46:46;96038.97;;;6.53;100.00
43878;BME280;29815;48.184;11.268;2024-02-15T03:49:19;96034.78;;;6.45;100.00
43878;BME280;29815;48.184;11.268;2024-02-15T03:51:49;96042.81;;;6.45;100.00
43878;BME280;29815;48.184;11.268;2024-02-15T03:54:18;96044.19;;;6.36;100.00
43878;BME280;29815;48.184;11.268;2024-02-15T03:56:48;96043.50;;;6.29;100.00
43878;BME280;29815;48.184;11.268;2024-02-15T03:59:21;96043.00;;;6.20;100.00
43878;BME280;29815;48.184;11.268;2024-02-15T04:01:54;96040.44;;;6.14;100.00
43878;BME280;29815;48.184;11.268;2024-02-15T04:04:24;96040.53;;;6.07;100.00
43878;BME280;29815;48.184;11.268;2024-02-15T04:06:54;96042.50;;;6.00;100.00
43878;BME280;29815;48.184;11.268;2024-02-15T04:09:24;96035.78;;;5.97;100.00
43878;BME280;29815;48.184;11.268;2024-02-15T04:11:53;96040.16;;;5.92;100.00
43878;BME280;29815;48.184;11.268;2024-02-15T04:14:26;96048.22;;;5.85;100.00
43878;BME280;29815;48.184;11.268;2024-02-15T04:16:56;96049.50;;;5.83;100.00
43878;BME280;29815;48.184;11.268;2024-02-15T04:19:27;96049.38;;;5.77;100.00
43878;BME280;29815;48.184;11.268;2024-02-15T04:21:56;96052.75;;;5.73;100.00
43878;BME280;29815;48.184;11.268;2024-02-15T04:24:27;96048.53;;;5.65;100.00
43878;BME280;29815;48.184;11.268;2024-02-15T04:26:57;96046.75;;;5.59;100.00
43878;BME280;29815;48.184;11.268;2024-02-15T04:29:28;96043.13;;;5.54;100.00
43878;BME280;29815;48.184;11.268;2024-02-15T04:31:58;96048.31;;;5.49;100.00
43878;BME280;29815;48.184;11.268;2024-02-15T04:34:27;96048.66;;;5.40;100.00
43878;BME280;29815;48.184;11.268;2024-02-15T04:36:57;96046.88;;;5.34;100.00
43878;BME280;29815;48.184;11.268;2024-02-15T04:39:26;96045.31;;;5.27;100.00
43878;BME280;29815;48.184;11.268;2024-02-15T04:41:57;96051.31;;;5.22;100.00
43878;BME280;29815;48.184;11.268;2024-02-15T04:44:28;96046.75;;;5.11;100.00
43878;BME280;29815;48.184;11.268;2024-02-15T04:46:58;96043.34;;;5.04;100.00
43878;BME280;29815;48.184;11.268;2024-02-15T04:49:27;96039.72;;;4.98;100.00
43878;BME280;29815;48.184;11.268;2024-02-15T04:51:57;96041.19;;;4.94;100.00
43878;BME280;29815;48.184;11.268;2024-02-15T04:54:29;96037.72;;;4.94;100.00
43878;BME280;29815;48.184;11.268;2024-02-15T04:56:58;96035.72;;;4.89;100.00
43878;BME280;29815;48.184;11.268;2024-02-15T04:59:30;96044.53;;;4.90;100.00
43878;BME280;29815;48.184;11.268;2024-02-15T05:01:59;96041.72;;;4.85;100.00
43878;BME280;29815;48.184;11.268;2024-02-15T05:04:29;96035.56;;;4.84;100.00
43878;BME280;29815;48.184;11.268;2024-02-15T05:06:58;96039.88;;;4.85;100.00
43878;BME280;29815;48.184;11.268;2024-02-15T05:09:27;96045.00;;;4.87;100.00
43878;BME280;29815;48.184;11.268;2024-02-15T05:11:59;96041.94;;;4.83;100.00
43878;BME280;29815;48.184;11.268;2024-02-15T05:14:30;96044.84;;;4.82;100.00
43878;BME280;29815;48.184;11.268;2024-02-15T05:17:00;96045.50;;;4.77;100.00
43878;BME280;29815;48.184;11.268;2024-02-15T05:19:30;96038.75;;;4.74;100.00
43878;BME280;29815;48.184;11.268;2024-02-15T05:22:00;96037.56;;;4.70;100.00
43878;BME280;29815;48.184;11.268;2024-02-15T05:24:33;96045.63;;;4.64;100.00
43878;BME280;29815;48.184;11.268;2024-02-15T05:27:04;96041.78;;;4.60;100.00
43878;BME280;29815;48.184;11.268;2024-02-15T05:29:35;96040.38;;;4.57;100.00
43878;BME280;29815;48.184;11.268;2024-02-15T05:32:05;96042.88;;;4.52;100.00
43878;BME280;29815;48.184;11.268;2024-02-15T05:34:35;96030.84;;;4.43;100.00
43878;BME280;29815;48.184;11.268;2024-02-15T05:37:08;96039.50;;;4.38;100.00
43878;BME280;29815;48.184;11.268;2024-02-15T05:39:38;96041.22;;;4.33;100.00
43878;BME280;29815;48.184;11.268;2024-02-15T05:42:09;96033.88;;;4.28;100.00
43878;BME280;29815;48.184;11.268;2024-02-15T05:44:40;96045.41;;;4.22;100.00
43878;BME280;29815;48.184;11.268;2024-02-15T05:47:10;96040.50;;;4.19;100.00
43878;BME280;29815;48.184;11.268;2024-02-15T05:49:39;96041.56;;;4.12;100.00
43878;BME280;29815;48.184;11.268;2024-02-15T05:52:10;96046.34;;;4.10;100.00
43878;BME280;29815;48.184;11.268;2024-02-15T05:54:40;96040.22;;;4.02;100.00
43878;BME280;29815;48.184;11.268;2024-02-15T05:57:10;96038.59;;;4.01;100.00
43878;BME280;29815;48.184;11.268;2024-02-15T05:59:40;96034.72;;;3.97;100.00
43878;BME280;29815;48.184;11.268;2024-02-15T06:02:10;96036.97;;;4.00;100.00
43878;BME280;29815;48.184;11.268;2024-02-15T06:04:40;96025.94;;;3.97;100.00
43878;BME280;29815;48.184;11.268;2024-02-15T06:07:10;96038.59;;;4.01;100.00
43878;BME280;29815;48.184;11.268;2024-02-15T06:09:40;96037.34;;;4.04;100.00
43878;BME280;29815;48.184;11.268;2024-02-15T06:12:09;96046.34;;;4.10;100.00
43878;BME280;29815;48.184;11.268;2024-02-15T06:14:38;96037.06;;;4.12;100.00
43878;BME280;29815;48.184;11.268;2024-02-15T06:17:09;96047.28;;;4.15;100.00
43878;BME280;29815;48.184;11.268;2024-02-15T06:19:38;96039.50;;;4.14;100.00
43878;BME280;29815;48.184;11.268;2024-02-15T06:22:08;96042.78;;;4.16;100.00
43878;BME280;29815;48.184;11.268;2024-02-15T06:24:37;96045.44;;;4.16;100.00
43878;BME280;29815;48.184;11.268;2024-02-15T06:27:07;96044.84;;;4.14;100.00
43878;BME280;29815;48.184;11.268;2024-02-15T06:29:37;96047.50;;;4.14;100.00
43878;BME280;29815;48.184;11.268;2024-02-15T06:32:25;96052.47;;;4.10;100.00
43878;BME280;29815;48.184;11.268;2024-02-15T06:35:15;96060.50;;;4.03;100.00
43878;BME280;29815;48.184;11.268;2024-02-15T06:38:02;96059.47;;;4.04;100.00
43878;BME280;29815;48.184;11.268;2024-02-15T06:41:00;96059.91;;;4.01;100.00
43878;BME280;29815;48.184;11.268;2024-02-15T06:43:32;96065.63;;;4.05;100.00
43878;BME280;29815;48.184;11.268;2024-02-15T06:46:03;96063.34;;;4.08;100.00
43878;BME280;29815;48.184;11.268;2024-02-15T06:48:36;96072.50;;;4.13;100.00
43878;BME280;29815;48.184;11.268;2024-02-15T06:51:06;96069.63;;;4.14;100.00
43878;BME280;29815;48.184;11.268;2024-02-15T06:53:41;96068.97;;;4.19;100.00
43878;BME280;29815;48.184;11.268;2024-02-15T06:56:11;96061.75;;;4.26;100.00
43878;BME280;29815;48.184;11.268;2024-02-15T06:58:42;96063.59;;;4.25;100.00
43878;BME280;29815;48.184;11.268;2024-02-15T07:01:11;96065.84;;;4.28;100.00
43878;BME280;29815;48.184;11.268;2024-02-15T07:03:44;96070.13;;;4.29;100.00
43878;BME280;29815;48.184;11.268;2024-02-15T07:06:15;96069.53;;;4.27;100.00
43878;BME280;29815;48.184;11.268;2024-02-15T07:08:45;96074.06;;;4.27;100.00
43878;BME280;29815;48.184;11.268;2024-02-15T07:11:15;96067.47;;;4.29;100.00
43878;BME280;29815;48.184;11.268;2024-02-15T07:13:45;96073.78;;;4.35;100.00
43878;BME280;29815;48.184;11.268;2024-02-15T07:16:14;96071.56;;;4.32;100.00
43878;BME280;29815;48.184;11.268;2024-02-15T07:18:45;96067.84;;;4.33;100.00
43878;BME280;29815;48.184;11.268;2024-02-15T07:21:15;96059.28;;;4.31;100.00
43878;BME280;29815;48.184;11.268;2024-02-15T07:23:47;96064.16;;;4.34;100.00
43878;BME280;29815;48.184;11.268;2024-02-15T07:26:16;96065.19;;;4.33;100.00
43878;BME280;29815;48.184;11.268;2024-02-15T07:28:48;96057.59;;;4.36;100.00
43878;BME280;29815;48.184;11.268;2024-02-15T07:31:18;96058.97;;;4.39;100.00
43878;BME280;29815;48.184;11.268;2024-02-15T07:33:50;96057.50;;;4.43;100.00
43878;BME280;29815;48.184;11.268;2024-02-15T07:36:22;96060.97;;;4.43;100.00
43878;BME280;29815;48.184;11.268;2024-02-15T07:38:52;96056.97;;;4.59;100.00
43878;BME280;29815;48.184;11.268;2024-02-15T07:41:24;96052.50;;;4.71;100.00
43878;BME280;29815;48.184;11.268;2024-02-15T07:43:53;96041.19;;;4.76;100.00
43878;BME280;29815;48.184;11.268;2024-02-15T07:46:23;96049.13;;;4.83;100.00
43878;BME280;29815;48.184;11.268;2024-02-15T07:48:54;96043.13;;;4.87;100.00
43878;BME280;29815;48.184;11.268;2024-02-15T07:51:25;96047.94;;;4.97;100.00
43878;BME280;29815;48.184;11.268;2024-02-15T07:53:55;96048.31;;;5.00;100.00
43878;BME280;29815;48.184;11.268;2024-02-15T07:56:25;96039.03;;;5.03;100.00
43878;BME280;29815;48.184;11.268;2024-02-15T07:58:55;96047.78;;;5.10;100.00
43878;BME280;29815;48.184;11.268;2024-02-15T08:01:24;96042.59;;;5.15;100.00
43878;BME280;29815;48.184;11.268;2024-02-15T08:03:55;96045.41;;;5.20;100.00
43878;BME280;29815;48.184;11.268;2024-02-15T08:06:25;96045.09;;;5.28;100.00
43878;BME280;29815;48.184;11.268;2024-02-15T08:08:57;96047.91;;;5.33;100.00
43878;BME280;29815;48.184;11.268;2024-02-15T08:11:26;96038.19;;;5.39;100.00
43878;BME280;29815;48.184;11.268;2024-02-15T08:13:56;96037.88;;;5.47;100.00
43878;BME280;29815;48.184;11.268;2024-02-15T08:16:27;96033.19;;;5.61;100.00
43878;BME280;29815;48.184;11.268;2024-02-15T08:18:58;96040.19;;;5.73;100.00
43878;BME280;29815;48.184;11.268;2024-02-15T08:21:31;96035.28;;;5.89;100.00
43878;BME280;29815;48.184;11.268;2024-02-15T08:24:02;96026.81;;;6.03;100.00
43878;BME280;29815;48.184;11.268;2024-02-15T08:26:36;96025.34;;;6.19;100.00
43878;BME280;29815;48.184;11.268;2024-02-15T08:29:07;96027.09;;;6.37;100.00
43878;BME280;29815;48.184;11.268;2024-02-15T08:31:37;96024.06;;;6.57;100.00
43878;BME280;29815;48.184;11.268;2024-02-15T08:34:08;96018.72;;;6.68;100.00
43878;BME280;29815;48.184;11.268;2024-02-15T08:36:42;96014.84;;;6.88;100.00
43878;BME280;29815;48.184;11.268;2024-02-15T08:39:11;96016.94;;;6.97;100.00
43878;BME280;29815;48.184;11.268;2024-02-15T08:41:41;96004.38;;;7.09;100.00
43878;BME280;29815;48.184;11.268;2024-02-15T08:44:11;96002.69;;;7.20;100.00
43878;BME280;29815;48.184;11.268;2024-02-15T08:46:44;96005.91;;;7.34;100.00
43878;BME280;29815;48.184;11.268;2024-02-15T08:49:17;95998.06;;;7.44;100.00
43878;BME280;29815;48.184;11.268;2024-02-15T08:51:48;96007.31;;;7.65;100.00
43878;BME280;29815;48.184;11.268;2024-02-15T08:54:18;96007.44;;;7.87;100.00
43878;BME280;29815;48.184;11.268;2024-02-15T08:56:49;96000.94;;;7.99;100.00
43878;BME280;29815;48.184;11.268;2024-02-15T08:59:20;95999.34;;;8.15;100.00
43878;BME280;29815;48.184;11.268;2024-02-15T09:01:50;96002.41;;;8.24;100.00
43878;BME280;29815;48.184;11.268;2024-02-15T09:04:21;96004.00;;;8.36;100.00
43878;BME280;29815;48.184;11.268;2024-02-15T09:06:52;96004.16;;;8.46;100.00
43878;BME280;29815;48.184;11.268;2024-02-15T09:09:22;95998.50;;;8.65;100.00
43878;BME280;29815;48.184;11.268;2024-02-15T09:11:51;95992.41;;;8.69;100.00
43878;BME280;29815;48.184;11.268;2024-02-15T09:14:21;95998.22;;;8.83;100.00
43878;BME280;29815;48.184;11.268;2024-02-15T09:16:51;95994.00;;;8.87;100.00
43878;BME280;29815;48.184;11.268;2024-02-15T09:19:22;95986.66;;;8.99;100.00
43878;BME280;29815;48.184;11.268;2024-02-15T09:21:52;95988.63;;;9.09;100.00
43878;BME280;29815;48.184;11.268;2024-02-15T09:24:21;95973.97;;;9.16;100.00
43878;BME280;29815;48.184;11.268;2024-02-15T09:26:53;95969.53;;;9.27;100.00
43878;BME280;29815;48.184;11.268;2024-02-15T09:29:22;95981.75;;;9.40;100.00
43878;BME280;29815;48.184;11.268;2024-02-15T09:31:52;95978.94;;;9.52;100.00
43878;BME280;29815;48.184;11.268;2024-02-15T09:34:23;95970.41;;;9.60;100.00
43878;BME280;29815;48.184;11.268;2024-02-15T09:36:52;95967.94;;;9.80;100.00
43878;BME280;29815;48.184;11.268;2024-02-15T09:39:23;95966.38;;;9.89;100.00
43878;BME280;29815;48.184;11.268;2024-02-15T09:41:53;95955.28;;;10.07;100.00
43878;BME280;29815;48.184;11.268;2024-02-15T09:44:26;95944.03;;;10.15;100.00
43878;BME280;29815;48.184;11.268;2024-02-15T09:47:02;95939.91;;;10.35;100.00
43878;BME280;29815;48.184;11.268;2024-02-15T09:49:36;95941.59;;;10.46;100.00
43878;BME280;29815;48.184;11.268;2024-02-15T09:52:09;95943.00;;;10.54;100.00
43878;BME280;29815;48.184;11.268;2024-02-15T09:54:40;95939.03;;;10.66;100.00
43878;BME280;29815;48.184;11.268;2024-02-15T09:57:11;95937.75;;;10.79;100.00
43878;BME280;29815;48.184;11.268;2024-02-15T09:59:41;95944.56;;;10.92;100.00
43878;BME280;29815;48.184;11.268;2024-02-15T10:02:13;95941.63;;;11.03;100.00
43878;BME280;29815;48.184;11.268;2024-02-15T10:04:44;95938.47;;;11.16;100.00
43878;BME280;29815;48.184;11.268;2024-02-15T10:07:18;95939.56;;;11.31;100.00
43878;BME280;29815;48.184;11.268;2024-02-15T10:09:47;95932.31;;;11.36;100.00
43878;BME280;29815;48.184;11.268;2024-02-15T10:12:17;95928.84;;;11.51;100.00
43878;BME280;29815;48.184;11.268;2024-02-15T10:14:48;95932.38;;;11.57;100.00
43878;BME280;29815;48.184;11.268;2024-02-15T10:17:19;95926.72;;;11.63;100.00
43878;BME280;29815;48.184;11.268;2024-02-15T10:20:05;95925.66;;;11.69;100.00
43878;BME280;29815;48.184;11.268;2024-02-15T10:22:37;95925.66;;;11.69;100.00
43878;BME280;29815;48.184;11.268;2024-02-15T10:25:12;95927.84;;;11.77;100.00
43878;BME280;29815;48.184;11.268;2024-02-15T10:27:44;95924.34;;;11.87;100.00
43878;BME280;29815;48.184;11.268;2024-02-15T10:30:16;95917.09;;;11.93;100.00
43878;BME280;29815;48.184;11.268;2024-02-15T10:32:47;95912.78;;;11.97;100.00
43878;BME280;29815;48.184;11.268;2024-02-15T10:35:22;95910.91;;;12.02;100.00
43878;BME280;29815;48.184;11.268;2024-02-15T10:37:52;95905.75;;;12.11;100.00
43878;BME280;29815;48.184;11.268;2024-02-15T10:40:35;95899.53;;;12.26;100.00
43878;BME280;29815;48.184;11.268;2024-02-15T10:43:05;95891.44;;;12.26;100.00
43878;BME280;29815;48.184;11.268;2024-02-15T10:45:35;95894.66;;;12.33;100.00
43878;BME280;29815;48.184;11.268;2024-02-15T10:48:07;95893.84;;;12.37;100.00
43878;BME280;29815;48.184;11.268;2024-02-15T10:50:40;95892.47;;;12.45;100.00
43878;BME280;29815;48.184;11.268;2024-02-15T10:53:13;95884.66;;;12.48;100.00
43878;BME280;29815;48.184;11.268;2024-02-15T10:55:55;95877.91;;;12.56;100.00
43878;BME280;29815;48.184;11.268;2024-02-15T10:58:30;95875.69;;;12.63;100.00
43878;BME280;29815;48.184;11.268;2024-02-15T11:01:03;95861.34;;;12.78;100.00
43878;BME280;29815;48.184;11.268;2024-02-15T11:03:37;95866.47;;;12.84;100.00
43878;BME280;29815;48.184;11.268;2024-02-15T11:06:16;95859.66;;;12.92;100.00
